Airfield :







YOU CAN JOIN US ON...

 
LOGIN :

Register | Disclaimer

   EN    FR    IT 

 









Legend :    VFR   Marginal VFR   IFR   Intensive IFR   Very Intensive IFR
Visi :
Ceiling :
>= 8 km
>= 3000ft
5 to 8 km
1000 to 3000 ft
1500m to 5 km
500 to 1000 ft
800 to 1500m
200 to 500 ft
< 800m
< 200 ft
Symbols :   Thunderstorms  Fog  Heavy snow  Heavy precipitations  Wind > 20 kt







- Airport Elevation : 90 ft
- IATA code : YHU


CYHU - Montréal Saint-Hubert

CURRENT METAR :
  • 170000Z AUTO 30007KT 9SM CLR 18/07 A3005 RMK SLP178 DENSITY ALT 200FT

EXPIRED METARs :
  • 162300Z AUTO 30008KT 9SM CLR 19/07 A3004 RMK SLP173 DENSITY ALT 400FT
  • 162200Z AUTO 29009KT 9SM SCT065 20/07 A3002 RMK SLP169 DENSITY ALT 600FT

TAF TAF CYHU
Valid from the 17 at 00:00 until the 18 at 00:00 UTC


162338Z 1700/1724 30008KT P6SM FEW060
FM171200 34006KT P6SM SCT020
FM171600 36006KT P6SM BKN040
BECMG 1721/1723 VRB03KT RMK FCST BASED ON AUTO OBS. NXT FCST BY 170600Z
No reported NOTAMs for that airfield.



MET'MAP, your aeronautical weather chart ! - Copyright ORBIFLY December 2007 - Disclaimer

ORBIFLY MET'MAP TEAM :

Programming & Development : Alexandra Zaïnal
Concept & Development : Baudouin d'Aumeries
Co-Development & Prog : Marc-Olivier Méhu
Technical & hardware support : Manuel Goepfert

Contact : metmap@orbifly.com




SOURCES & CREDITS :

   NOAA